Time;durP1;ratioP1;P1;durP2;ratioP2;P2;SDS_P1;SDS_P2;PMS_P1;PMS_P2;Temp;Humidity;BMP_temperature;BMP_pressure;BME280_temperature;BME280_humidity;BME280_pressure;Samples;Min_cycle;Max_cycle;Signal;HPM_P1;HPM_P2
2022/05/26 00:00:20;;;;;;;5.23;1.87;;;15.50;99.90;;;;;;5044737;28;20973;-91
2022/05/26 00:02:48;;;;;;;5.00;1.70;;;15.50;99.90;;;;;;5050903;28;20462;-90
2022/05/26 00:05:17;;;;;;;3.50;1.83;;;15.50;99.90;;;;;;5052370;28;20459;-91
2022/05/26 00:07:45;;;;;;;4.70;1.90;;;15.50;99.90;;;;;;5063464;22;20555;-89
2022/05/26 00:10:12;;;;;;;3.37;1.30;;;15.50;99.90;;;;;;5056845;28;20429;-87
2022/05/26 00:12:39;;;;;;;3.57;1.70;;;15.60;99.90;;;;;;5056925;28;20447;-87
2022/05/26 00:15:07;;;;;;;4.70;2.00;;;15.60;99.90;;;;;;5052358;28;20492;-87
2022/05/26 00:17:34;;;;;;;4.10;1.83;;;15.70;99.90;;;;;;5058098;28;20448;-87
2022/05/26 00:20:04;;;;;;;3.20;1.60;;;15.80;99.90;;;;;;5056166;28;20483;-87
2022/05/26 00:22:33;;;;;;;4.67;1.43;;;15.90;99.90;;;;;;5042939;28;20482;-88
2022/05/26 00:25:00;;;;;;;4.30;1.70;;;15.80;99.90;;;;;;5041902;28;20978;-87
2022/05/26 00:27:27;;;;;;;3.47;1.57;;;15.80;99.90;;;;;;5042183;28;20481;-88
2022/05/26 00:29:54;;;;;;;4.30;1.53;;;15.80;99.90;;;;;;5045919;28;20443;-87
2022/05/26 00:32:23;;;;;;;3.97;1.50;;;15.90;99.90;;;;;;5047982;28;20476;-87
2022/05/26 00:34:51;;;;;;;6.47;2.33;;;15.80;99.90;;;;;;5040507;28;20434;-88
2022/05/26 00:37:19;;;;;;;5.80;1.90;;;15.80;99.90;;;;;;5040049;28;20475;-87
2022/05/26 00:39:47;;;;;;;3.77;1.77;;;15.70;99.90;;;;;;5049565;28;20428;-88
2022/05/26 00:42:14;;;;;;;3.80;1.60;;;15.70;99.90;;;;;;5040469;28;20420;-88
2022/05/26 00:44:47;;;;;;;5.83;2.13;;;15.80;99.90;;;;;;5038463;28;20453;-89
2022/05/26 00:47:21;;;;;;;3.73;1.63;;;15.80;99.90;;;;;;5039363;28;20472;-88
2022/05/26 00:52:45;;;;;;;3.30;1.40;;;15.70;99.90;;;;;;4886769;22;20938;-89
2022/05/26 00:55:43;;;;;;;3.40;1.77;;;15.60;99.90;;;;;;4979925;28;20517;-90
2022/05/26 00:58:58;;;;;;;5.60;1.87;;;15.70;99.90;;;;;;4984842;28;20544;-89
2022/05/26 01:08:58;;;;;;;3.60;1.90;;;15.70;99.90;;;;;;4993353;28;20491;-88
2022/05/26 01:11:29;;;;;;;3.10;1.60;;;15.70;99.90;;;;;;4988347;28;20447;-87
2022/05/26 01:13:59;;;;;;;5.10;1.53;;;15.80;99.90;;;;;;4987926;28;20439;-87
2022/05/26 01:16:36;;;;;;;5.20;1.60;;;15.80;99.90;;;;;;4982484;28;20413;-87
2022/05/26 01:19:26;;;;;;;5.20;1.87;;;15.70;99.90;;;;;;4980253;28;20449;-88
2022/05/26 01:21:59;;;;;;;3.40;1.47;;;15.80;99.90;;;;;;4979627;28;20400;-86
2022/05/26 01:27:45;;;;;;;6.13;1.70;;;15.70;99.90;;;;;;4997167;28;20498;-87
2022/05/26 01:30:25;;;;;;;3.40;1.67;;;15.80;99.90;;;;;;4993113;28;20512;-88
2022/05/26 01:33:32;;;;;;;3.40;1.67;;;15.80;99.90;;;;;;4992466;28;20463;-87
2022/05/26 01:36:21;;;;;;;3.60;1.50;;;15.70;99.90;;;;;;4986815;28;20853;-87
2022/05/26 01:39:02;;;;;;;6.43;1.80;;;15.70;99.90;;;;;;4990608;28;20471;-88
2022/05/26 01:41:55;;;;;;;4.70;1.40;;;15.70;99.90;;;;;;4982605;28;20448;-87
2022/05/26 01:44:38;;;;;;;4.43;1.60;;;15.70;99.90;;;;;;4979377;28;20462;-89
2022/05/26 01:47:21;;;;;;;5.27;1.50;;;15.70;99.90;;;;;;4985816;28;20441;-88
2022/05/26 01:49:57;;;;;;;6.87;1.70;;;15.70;99.90;;;;;;4994236;28;20499;-88
2022/05/26 01:52:35;;;;;;;2.90;1.20;;;15.70;99.90;;;;;;4987603;28;20487;-88
2022/05/26 01:55:13;;;;;;;3.57;1.50;;;15.60;99.90;;;;;;4984624;28;20906;-89
2022/05/26 01:57:46;;;;;;;3.30;1.47;;;15.50;99.90;;;;;;4980276;28;20944;-88
2022/05/26 02:00:19;;;;;;;4.07;1.10;;;15.50;99.90;;;;;;4979512;28;20466;-88
2022/05/26 02:02:55;;;;;;;3.40;1.60;;;15.30;99.90;;;;;;4977338;28;20413;-89
2022/05/26 02:05:29;;;;;;;3.97;1.60;;;15.20;99.90;;;;;;4978374;28;20458;-88
2022/05/26 02:08:03;;;;;;;4.70;1.80;;;15.20;99.90;;;;;;4978284;28;20959;-88
2022/05/26 02:10:34;;;;;;;4.70;1.40;;;15.20;99.90;;;;;;4980221;28;20456;-88
2022/05/26 02:13:11;;;;;;;4.30;1.80;;;15.20;99.90;;;;;;4986971;28;20444;-88
2022/05/26 02:15:46;;;;;;;3.90;1.20;;;15.20;99.90;;;;;;4978059;28;20398;-88
2022/05/26 02:18:17;;;;;;;2.50;1.00;;;15.20;99.90;;;;;;4977641;28;20467;-88
2022/05/26 02:20:54;;;;;;;3.90;1.30;;;15.20;99.90;;;;;;4989654;28;20500;-88
2022/05/26 02:23:30;;;;;;;3.17;1.20;;;15.00;99.90;;;;;;4990060;28;20435;-89
2022/05/26 02:25:59;;;;;;;3.67;1.53;;;15.00;99.90;;;;;;4977846;28;20478;-89
2022/05/26 02:31:35;;;;;;;3.07;1.40;;;14.90;99.90;;;;;;4977683;28;20459;-88
2022/05/26 02:34:16;;;;;;;3.53;1.17;;;14.90;99.90;;;;;;4978962;28;20429;-89
2022/05/26 02:36:57;;;;;;;4.77;1.20;;;14.80;99.90;;;;;;4978498;28;20426;-89
2022/05/26 02:39:24;;;;;;;3.37;1.10;;;14.80;99.90;;;;;;4977845;28;20450;-89
2022/05/26 02:41:58;;;;;;;4.47;1.30;;;14.80;99.90;;;;;;4990806;28;20449;-90
2022/05/26 02:44:31;;;;;;;3.63;1.20;;;14.80;99.90;;;;;;4981295;28;20460;-89
2022/05/26 02:47:15;;;;;;;3.50;1.27;;;14.70;99.90;;;;;;4977651;28;20419;-88
2022/05/26 02:49:58;;;;;;;3.53;1.00;;;14.70;99.90;;;;;;4980305;28;20481;-87
2022/05/26 02:52:35;;;;;;;3.83;1.27;;;14.70;99.90;;;;;;4979436;28;20466;-88
2022/05/26 02:55:19;;;;;;;3.03;1.20;;;14.70;99.90;;;;;;4977749;28;20417;-89
2022/05/26 02:58:05;;;;;;;3.60;1.00;;;14.80;99.90;;;;;;4977374;28;20448;-89
2022/05/26 03:00:43;;;;;;;4.30;1.70;;;14.70;99.90;;;;;;4981019;28;20407;-88
2022/05/26 03:03:23;;;;;;;4.47;1.20;;;14.70;99.90;;;;;;4995966;28;20397;-88
2022/05/26 03:06:17;;;;;;;3.33;1.40;;;14.50;99.90;;;;;;4992724;28;20404;-88
2022/05/26 03:08:49;;;;;;;3.40;1.23;;;14.50;99.90;;;;;;4991491;28;20497;-87
2022/05/26 03:11:27;;;;;;;2.77;1.17;;;14.60;99.90;;;;;;4993625;28;20432;-88
2022/05/26 03:13:54;;;;;;;4.90;1.60;;;14.50;99.90;;;;;;4995200;28;20447;-88
2022/05/26 03:16:25;;;;;;;3.00;1.27;;;14.50;99.90;;;;;;4982369;28;20428;-88
2022/05/26 03:19:04;;;;;;;;;;;;;;;;;;;;;
2022/05/26 03:21:38;;;;;;;2.70;1.30;;;14.50;99.90;;;;;;4980376;28;20399;-88
2022/05/26 03:24:13;;;;;;;4.27;1.50;;;14.50;99.90;;;;;;4979891;28;20917;-87
2022/05/26 03:26:40;;;;;;;3.30;1.60;;;14.40;99.90;;;;;;4995272;28;20430;-87
2022/05/26 03:29:08;;;;;;;4.20;1.60;;;14.40;99.90;;;;;;4980475;28;20532;-89
2022/05/26 03:31:36;;;;;;;2.90;1.20;;;14.40;99.90;;;;;;4976666;28;20439;-87
2022/05/26 03:42:24;;;;;;;2.90;1.13;;;14.30;99.90;;;;;;4976154;28;20430;-88
2022/05/26 03:44:54;;;;;;;3.27;1.33;;;14.40;99.90;;;;;;4980478;28;20466;-88
2022/05/26 03:47:26;;;;;;;3.63;1.80;;;14.50;99.90;;;;;;4980014;28;20417;-88
2022/05/26 03:49:56;;;;;;;4.40;1.50;;;14.60;99.90;;;;;;4980587;28;20945;-88
2022/05/26 03:52:23;;;;;;;3.00;1.30;;;14.50;99.90;;;;;;4980193;28;20444;-88
2022/05/26 03:54:52;;;;;;;4.30;1.40;;;14.40;99.90;;;;;;4980803;28;20490;-88
2022/05/26 03:57:24;;;;;;;3.57;1.10;;;14.40;99.90;;;;;;4981682;28;20810;-87
2022/05/26 03:59:52;;;;;;;3.20;1.10;;;14.40;99.90;;;;;;4983923;28;20395;-87
2022/05/26 04:02:19;;;;;;;5.40;1.17;;;14.40;99.90;;;;;;4983413;28;20445;-87
2022/05/26 04:04:47;;;;;;;2.90;1.27;;;14.30;99.90;;;;;;4980547;28;20465;-87
2022/05/26 04:07:14;;;;;;;4.20;1.20;;;14.30;99.90;;;;;;4979740;28;20659;-87
2022/05/26 04:09:41;;;;;;;3.77;1.50;;;14.40;99.90;;;;;;4979958;28;20813;-88
2022/05/26 04:12:12;;;;;;;3.50;1.60;;;14.60;99.90;;;;;;4980427;28;20448;-88
2022/05/26 04:14:40;;;;;;;3.63;1.50;;;14.60;99.90;;;;;;5000356;28;20445;-88
2022/05/26 04:17:10;;;;;;;4.53;1.10;;;14.60;99.90;;;;;;4997865;28;20536;-87
2022/05/26 04:19:41;;;;;;;2.87;1.23;;;14.60;99.90;;;;;;4987510;28;20851;-87
2022/05/26 04:22:18;;;;;;;5.10;1.47;;;14.70;99.90;;;;;;4988570;28;20470;-87
2022/05/26 04:24:47;;;;;;;2.80;1.10;;;14.60;99.90;;;;;;4987943;28;20440;-87
2022/05/26 04:27:19;;;;;;;2.60;1.00;;;14.50;99.90;;;;;;4989419;28;20446;-87
2022/05/26 04:29:46;;;;;;;4.00;1.60;;;14.50;99.90;;;;;;4992191;28;20475;-88
2022/05/26 04:32:13;;;;;;;3.50;1.20;;;14.60;99.90;;;;;;4984327;28;20452;-88
2022/05/26 04:34:42;;;;;;;3.03;1.20;;;14.70;99.90;;;;;;4981823;28;20456;-87
2022/05/26 04:37:09;;;;;;;3.10;1.00;;;14.80;99.90;;;;;;4989075;28;20479;-87
2022/05/26 04:39:43;;;;;;;3.90;1.13;;;14.80;99.90;;;;;;4990057;28;20428;-87
2022/05/26 04:42:11;;;;;;;3.43;1.30;;;14.90;99.90;;;;;;4983193;28;20452;-88
2022/05/26 04:44:43;;;;;;;3.30;1.20;;;15.00;99.90;;;;;;4981479;28;20498;-87
2022/05/26 04:47:12;;;;;;;4.70;1.23;;;15.10;99.90;;;;;;4979329;28;20522;-88
2022/05/26 04:49:42;;;;;;;3.83;1.50;;;15.20;99.90;;;;;;4979391;28;20499;-88
2022/05/26 04:52:14;;;;;;;3.10;1.10;;;15.10;99.90;;;;;;4979979;28;20585;-89
2022/05/26 04:54:42;;;;;;;3.90;1.23;;;15.10;99.90;;;;;;4979547;28;20476;-87
2022/05/26 04:57:10;;;;;;;2.93;1.40;;;15.20;99.90;;;;;;4979095;28;20453;-88
2022/05/26 04:59:36;;;;;;;3.43;1.30;;;15.20;99.90;;;;;;4991645;28;20438;-87
2022/05/26 05:02:08;;;;;;;3.07;1.03;;;15.20;99.90;;;;;;4979792;28;20434;-88
2022/05/26 05:04:36;;;;;;;4.10;1.03;;;15.30;99.90;;;;;;4987180;28;20417;-88
2022/05/26 05:07:05;;;;;;;2.77;1.20;;;15.50;99.90;;;;;;4983508;28;20426;-89
2022/05/26 05:09:32;;;;;;;4.17;1.30;;;15.50;99.90;;;;;;4987066;28;20490;-88
2022/05/26 05:12:18;;;;;;;2.93;1.17;;;15.60;99.90;;;;;;4985219;28;20470;-89
2022/05/26 05:14:47;;;;;;;3.40;1.40;;;15.70;99.90;;;;;;4981113;28;20527;-88
2022/05/26 05:17:17;;;;;;;5.07;2.03;;;15.70;99.90;;;;;;4981241;28;20470;-88
2022/05/26 05:19:44;;;;;;;3.50;1.43;;;15.80;99.90;;;;;;4979009;28;20417;-89
2022/05/26 05:22:21;;;;;;;5.50;1.40;;;15.90;99.90;;;;;;4978478;28;21114;-90
2022/05/26 05:24:53;;;;;;;4.07;1.50;;;15.90;99.90;;;;;;4980580;28;20417;-88
2022/05/26 05:27:24;;;;;;;2.80;1.10;;;16.00;99.90;;;;;;4980510;28;20436;-87
2022/05/26 05:29:55;;;;;;;2.70;1.00;;;16.20;99.90;;;;;;4979417;28;20559;-87
2022/05/26 05:32:26;;;;;;;3.03;1.00;;;16.40;99.90;;;;;;4978943;28;20448;-88
2022/05/26 05:34:59;;;;;;;5.17;1.30;;;16.60;99.90;;;;;;4977958;28;20499;-89
2022/05/26 05:37:27;;;;;;;4.47;1.00;;;16.70;99.90;;;;;;4984719;28;20444;-89
2022/05/26 05:40:03;;;;;;;3.73;1.30;;;16.70;99.90;;;;;;4981494;28;20444;-88
2022/05/26 05:42:34;;;;;;;3.07;1.10;;;16.70;99.90;;;;;;4982729;28;20452;-88
2022/05/26 05:45:03;;;;;;;4.77;1.37;;;16.80;99.90;;;;;;4987201;28;20419;-90
2022/05/26 05:47:34;;;;;;;2.80;0.90;;;16.90;99.90;;;;;;4993553;28;20439;-89
2022/05/26 05:50:07;;;;;;;6.53;1.40;;;16.90;99.90;;;;;;4986979;28;20922;-89
2022/05/26 05:52:39;;;;;;;4.00;1.40;;;17.00;99.90;;;;;;4982259;28;20469;-88
2022/05/26 05:55:10;;;;;;;3.47;1.00;;;17.00;99.90;;;;;;4998340;28;20457;-88
2022/05/26 05:57:40;;;;;;;5.10;1.03;;;17.10;99.90;;;;;;4993737;28;20555;-89
2022/05/26 06:00:11;;;;;;;3.80;1.00;;;17.30;99.90;;;;;;4988175;28;20452;-88
2022/05/26 06:02:42;;;;;;;4.17;1.30;;;17.40;99.90;;;;;;4997723;28;20455;-89
2022/05/26 06:05:13;;;;;;;4.10;1.50;;;17.60;99.90;;;;;;4983541;28;20553;-89
2022/05/26 06:07:43;;;;;;;5.40;1.20;;;17.70;99.90;;;;;;4984876;28;20478;-90
2022/05/26 06:10:13;;;;;;;2.80;0.93;;;17.90;99.90;;;;;;4993813;22;20867;-87
2022/05/26 06:12:41;;;;;;;2.77;1.00;;;17.80;99.90;;;;;;4977097;28;20444;-88
2022/05/26 06:15:08;;;;;;;3.50;1.27;;;17.80;99.90;;;;;;4996632;28;20456;-88
2022/05/26 06:17:35;;;;;;;4.40;1.67;;;17.90;99.90;;;;;;4992972;28;20467;-88
2022/05/26 06:20:05;;;;;;;3.73;1.20;;;17.90;99.90;;;;;;4977562;28;20554;-88
2022/05/26 06:22:37;;;;;;;3.60;1.07;;;17.90;99.90;;;;;;4977301;28;20828;-87
2022/05/26 06:25:05;;;;;;;2.97;1.23;;;17.90;99.90;;;;;;4977271;28;20462;-87
2022/05/26 06:30:19;;;;;;;3.00;1.00;;;18.00;99.90;;;;;;4976723;28;20490;-88
2022/05/26 06:38:20;;;;;;;3.53;1.53;;;18.10;99.80;;;;;;4982159;28;20419;-88
2022/05/26 06:40:48;;;;;;;4.33;1.23;;;18.10;99.70;;;;;;4997416;28;20438;-88
2022/05/26 06:43:16;;;;;;;4.03;1.20;;;18.10;99.70;;;;;;4995074;28;20563;-88
2022/05/26 06:45:45;;;;;;;4.30;1.27;;;18.10;99.80;;;;;;4977694;28;20946;-89
2022/05/26 06:48:12;;;;;;;2.90;1.20;;;18.10;99.90;;;;;;4976322;28;20467;-88
2022/05/26 06:50:41;;;;;;;4.20;1.60;;;18.20;99.90;;;;;;4976486;28;20496;-89
2022/05/26 06:53:08;;;;;;;3.73;1.20;;;18.20;99.90;;;;;;4988285;28;20471;-88
2022/05/26 06:55:35;;;;;;;4.13;1.47;;;18.30;99.90;;;;;;4993199;28;20456;-88
2022/05/26 06:58:02;;;;;;;4.27;1.37;;;18.40;99.70;;;;;;4987153;28;20871;-88
2022/05/26 07:00:29;;;;;;;4.70;1.33;;;18.50;99.60;;;;;;4977999;28;21035;-88
2022/05/26 07:02:56;;;;;;;3.10;1.20;;;18.50;99.60;;;;;;4977393;28;20513;-88
2022/05/26 07:05:23;;;;;;;3.13;1.00;;;18.60;99.60;;;;;;4980020;28;20434;-87
2022/05/26 07:07:51;;;;;;;3.77;1.27;;;18.80;99.10;;;;;;4988186;28;20514;-87
2022/05/26 07:10:18;;;;;;;3.37;0.90;;;18.80;99.00;;;;;;4977957;28;20496;-86
2022/05/26 07:12:46;;;;;;;4.30;1.20;;;18.80;98.90;;;;;;4978283;28;20454;-86
2022/05/26 07:15:13;;;;;;;4.63;1.90;;;18.80;98.70;;;;;;4979391;28;20487;-86
2022/05/26 07:17:40;;;;;;;4.50;2.03;;;18.80;98.60;;;;;;4980942;28;20465;-86
2022/05/26 07:20:11;;;;;;;4.57;1.30;;;18.80;98.70;;;;;;4984865;28;20558;-86
2022/05/26 07:22:38;;;;;;;5.33;1.40;;;18.90;98.60;;;;;;4984013;28;20455;-87
2022/05/26 07:25:10;;;;;;;3.20;1.30;;;19.00;98.30;;;;;;4983654;28;21012;-87
2022/05/26 07:27:37;;;;;;;3.90;1.30;;;19.00;98.00;;;;;;4984538;28;20476;-87
2022/05/26 07:30:06;;;;;;;4.93;1.40;;;19.10;97.90;;;;;;5001332;28;20494;-86
2022/05/26 07:32:32;;;;;;;5.27;1.13;;;19.20;97.70;;;;;;4998958;28;20513;-86
2022/05/26 07:35:02;;;;;;;3.20;1.20;;;19.30;97.70;;;;;;4986113;28;20480;-89
2022/05/26 07:43:05;;;;;;;3.37;1.50;;;19.50;96.80;;;;;;4979671;28;20418;-89
2022/05/26 07:45:32;;;;;;;3.10;1.00;;;19.50;96.50;;;;;;4980342;28;20451;-89
2022/05/26 07:48:04;;;;;;;4.07;1.30;;;19.70;96.60;;;;;;4979054;28;20468;-89
2022/05/26 07:50:31;;;;;;;2.73;0.87;;;19.70;96.90;;;;;;4979068;28;20610;-89
2022/05/26 07:53:21;;;;;;;6.27;1.33;;;19.90;95.90;;;;;;4989262;28;21023;-89
2022/05/26 07:55:50;;;;;;;2.97;1.20;;;19.80;95.30;;;;;;4977940;28;20459;-89
2022/05/26 07:58:21;;;;;;;4.23;1.00;;;19.90;95.30;;;;;;4981311;28;20460;-89
2022/05/26 08:00:48;;;;;;;3.97;1.13;;;19.90;95.10;;;;;;4984515;28;20579;-89
2022/05/26 08:03:15;;;;;;;4.20;1.20;;;20.00;95.00;;;;;;4988796;28;20525;-89
2022/05/26 08:05:42;;;;;;;3.17;1.10;;;20.00;94.70;;;;;;4980139;28;20437;-89
2022/05/26 08:08:09;;;;;;;3.13;1.00;;;20.10;94.30;;;;;;4979434;28;20870;-89
2022/05/26 08:10:37;;;;;;;3.30;1.00;;;20.20;94.50;;;;;;4979505;28;20912;-89
2022/05/26 08:13:06;;;;;;;3.93;1.13;;;20.30;94.20;;;;;;4979277;28;20492;-89
2022/05/26 08:15:33;;;;;;;4.60;1.30;;;20.40;94.00;;;;;;4980771;28;20800;-89
2022/05/26 08:18:02;;;;;;;5.90;1.10;;;20.30;94.10;;;;;;4982913;28;20488;-89
2022/05/26 08:20:30;;;;;;;4.20;1.20;;;20.10;94.30;;;;;;4980635;28;20981;-89
2022/05/26 08:22:57;;;;;;;2.97;1.20;;;19.80;94.60;;;;;;4979589;28;20483;-89
2022/05/26 08:25:26;;;;;;;3.50;1.20;;;19.70;94.80;;;;;;4977892;28;21176;-89
2022/05/26 08:27:53;;;;;;;3.70;1.37;;;19.80;94.70;;;;;;4980455;28;20464;-88
2022/05/26 08:30:21;;;;;;;3.57;1.00;;;19.80;94.80;;;;;;4977280;28;20484;-88
2022/05/26 08:32:51;;;;;;;3.70;1.10;;;19.90;94.60;;;;;;4977543;28;20514;-87
2022/05/26 08:35:18;;;;;;;5.70;0.93;;;19.90;94.80;;;;;;4983492;28;20465;-87
2022/05/26 08:37:45;;;;;;;4.00;0.90;;;19.80;94.70;;;;;;4978676;28;21027;-87
2022/05/26 08:40:35;;;;;;;2.93;1.03;;;19.90;94.90;;;;;;4978980;28;20474;-88
2022/05/26 08:43:04;;;;;;;3.70;1.17;;;20.00;94.80;;;;;;4983692;28;20549;-87
2022/05/26 08:45:36;;;;;;;2.90;1.20;;;20.00;94.90;;;;;;4990597;28;20565;-86
2022/05/26 08:48:06;;;;;;;2.80;1.00;;;20.20;94.70;;;;;;4999570;28;20429;-86
2022/05/26 08:50:35;;;;;;;3.27;1.20;;;20.10;94.70;;;;;;4989403;28;20502;-89
2022/05/26 08:53:07;;;;;;;3.43;1.20;;;20.20;94.80;;;;;;4980017;28;20478;-86
2022/05/26 08:55:40;;;;;;;2.80;1.10;;;20.20;94.90;;;;;;4980483;28;20914;-88
2022/05/26 08:58:11;;;;;;;2.93;0.90;;;20.30;94.70;;;;;;4979833;28;20445;-88
2022/05/26 09:00:42;;;;;;;3.87;1.20;;;20.40;94.30;;;;;;4982613;28;20841;-88
2022/05/26 09:03:25;;;;;;;4.90;1.10;;;20.40;94.10;;;;;;4983664;28;20464;-88
2022/05/26 09:05:58;;;;;;;4.47;1.20;;;20.60;94.00;;;;;;4986822;28;20520;-88
2022/05/26 09:14:01;;;;;;;4.73;1.60;;;20.50;93.90;;;;;;4993402;28;20414;-88
2022/05/26 09:16:33;;;;;;;3.43;1.10;;;20.70;93.70;;;;;;4989610;28;20550;-87
2022/05/26 09:19:11;;;;;;;4.60;1.37;;;20.90;93.60;;;;;;4980568;28;20522;-87
2022/05/26 09:21:38;;;;;;;3.33;1.20;;;20.90;93.20;;;;;;4980504;28;20495;-87
2022/05/26 09:24:22;;;;;;;2.70;0.80;;;21.00;93.30;;;;;;4981389;28;20476;-87
2022/05/26 09:26:53;;;;;;;3.37;1.30;;;21.20;93.10;;;;;;4978845;28;20817;-87
2022/05/26 09:29:25;;;;;;;3.47;1.47;;;21.10;93.20;;;;;;4979161;28;20441;-87
2022/05/26 09:31:55;;;;;;;2.80;1.10;;;21.00;93.20;;;;;;4979363;28;20446;-87
2022/05/26 09:34:24;;;;;;;2.87;1.13;;;20.80;93.60;;;;;;4978675;28;20452;-87
2022/05/26 09:36:53;;;;;;;5.03;1.40;;;20.70;93.70;;;;;;4980098;28;20456;-87
2022/05/26 09:39:23;;;;;;;4.87;1.30;;;20.70;93.30;;;;;;4983193;28;20554;-88
2022/05/26 09:41:53;;;;;;;2.80;0.90;;;20.80;93.20;;;;;;4979057;28;20472;-88
2022/05/26 09:44:49;;;;;;;4.37;1.43;;;20.40;93.60;;;;;;4981408;28;20519;-87
2022/05/26 09:47:29;;;;;;;2.83;1.20;;;20.10;94.10;;;;;;4989069;28;20580;-88
2022/05/26 09:50:00;;;;;;;3.30;1.20;;;20.00;94.40;;;;;;4988349;28;20555;-88
2022/05/26 09:52:30;;;;;;;4.40;1.40;;;20.00;94.40;;;;;;4980124;28;20474;-88
2022/05/26 09:55:19;;;;;;;3.03;1.00;;;19.90;94.80;;;;;;4982101;28;20467;-88
2022/05/26 09:57:46;;;;;;;3.93;1.20;;;20.00;94.90;;;;;;4989284;28;20441;-88
2022/05/26 10:00:21;;;;;;;2.93;0.90;;;19.90;94.70;;;;;;4985467;28;20500;-87
2022/05/26 10:02:51;;;;;;;3.73;1.20;;;20.10;94.30;;;;;;4979986;28;20450;-89
2022/05/26 10:05:24;;;;;;;2.77;1.20;;;20.20;94.10;;;;;;4998362;28;20431;-87
2022/05/26 10:08:05;;;;;;;3.53;1.10;;;20.30;94.40;;;;;;4996318;28;20440;-88
2022/05/26 10:10:39;;;;;;;3.10;1.40;;;20.30;94.30;;;;;;4979159;28;21084;-88
2022/05/26 10:13:25;;;;;;;3.80;1.33;;;20.20;94.40;;;;;;4980261;28;20457;-87
2022/05/26 10:16:02;;;;;;;3.73;1.30;;;20.30;94.20;;;;;;4979894;28;20533;-86
2022/05/26 10:18:51;;;;;;;3.00;1.07;;;20.30;94.20;;;;;;4980492;28;20488;-86
2022/05/26 10:21:34;;;;;;;5.07;1.50;;;20.30;94.10;;;;;;4981088;28;20837;-86
2022/05/26 10:24:36;;;;;;;5.10;1.30;;;20.20;94.50;;;;;;4981348;28;20526;-86
2022/05/26 10:27:14;;;;;;;3.10;1.00;;;20.40;94.50;;;;;;4981916;28;20544;-87
2022/05/26 10:29:57;;;;;;;3.10;1.10;;;20.60;93.80;;;;;;4982790;28;20984;-87
2022/05/26 10:32:38;;;;;;;3.10;1.13;;;20.60;93.80;;;;;;4984080;28;20440;-86
2022/05/26 10:35:21;;;;;;;3.03;1.30;;;20.70;94.00;;;;;;4985192;28;20945;-87
2022/05/26 10:38:14;;;;;;;4.13;1.60;;;20.70;93.80;;;;;;4984782;28;20512;-86
2022/05/26 10:40:52;;;;;;;3.93;1.27;;;20.70;94.00;;;;;;4984472;28;20482;-88
2022/05/26 10:43:23;;;;;;;2.80;1.00;;;20.80;94.10;;;;;;4983712;28;20655;-87
2022/05/26 10:45:54;;;;;;;3.93;1.50;;;20.90;93.50;;;;;;4983621;28;20478;-87
2022/05/26 10:48:28;;;;;;;3.77;1.20;;;20.80;93.20;;;;;;4982665;28;20535;-87
2022/05/26 10:51:02;;;;;;;5.00;1.50;;;20.70;92.70;;;;;;4982986;28;20487;-87
2022/05/26 10:53:36;;;;;;;2.70;1.17;;;20.70;93.00;;;;;;4992997;28;20462;-87
2022/05/26 10:56:11;;;;;;;3.27;0.90;;;20.50;93.40;;;;;;4998558;28;20440;-86
2022/05/26 10:58:44;;;;;;;3.23;1.10;;;20.50;93.60;;;;;;4993668;28;20443;-87
2022/05/26 11:01:27;;;;;;;2.80;1.10;;;20.40;94.10;;;;;;4988741;28;20466;-86
2022/05/26 11:04:03;;;;;;;3.40;1.50;;;20.30;94.80;;;;;;4984853;28;20921;-87
2022/05/26 11:06:41;;;;;;;4.00;1.30;;;20.20;94.60;;;;;;4987252;28;20440;-88
2022/05/26 11:09:23;;;;;;;3.57;1.10;;;20.10;94.90;;;;;;4987921;28;20558;-87
2022/05/26 11:11:57;;;;;;;3.73;1.63;;;20.20;95.20;;;;;;4985275;28;20992;-86
2022/05/26 11:17:26;;;;;;;4.27;1.20;;;20.20;94.60;;;;;;4986737;28;20463;-88
2022/05/26 11:20:05;;;;;;;3.30;1.40;;;20.20;94.70;;;;;;4986849;28;20475;-89
2022/05/26 11:22:45;;;;;;;3.63;1.50;;;20.30;94.60;;;;;;4992927;28;20454;-89
2022/05/26 11:25:26;;;;;;;6.07;1.83;;;20.50;94.30;;;;;;4986176;28;20451;-89
2022/05/26 11:28:04;;;;;;;6.33;1.60;;;20.70;93.90;;;;;;4984146;28;20452;-88
2022/05/26 11:36:53;;;;;;;4.60;1.50;;;20.80;93.80;;;;;;4953477;29;20504;-89
2022/05/26 11:39:28;;;;;;;6.00;1.70;;;20.70;93.50;;;;;;4982253;28;20439;-88
2022/05/26 11:41:59;;;;;;;3.40;1.50;;;20.80;93.50;;;;;;4989473;28;20959;-89
2022/05/26 11:44:44;;;;;;;5.27;1.50;;;20.90;93.40;;;;;;4984119;28;20436;-88
2022/05/26 11:47:32;;;;;;;4.47;1.37;;;20.90;93.50;;;;;;4982560;28;20537;-88
2022/05/26 11:50:32;;;;;;;4.53;1.50;;;21.00;93.40;;;;;;4983126;28;20844;-89
2022/05/26 11:53:12;;;;;;;3.73;1.40;;;21.10;93.40;;;;;;4982714;28;20933;-87
2022/05/26 11:55:52;;;;;;;7.80;1.70;;;21.10;93.40;;;;;;4981842;28;20459;-86
2022/05/26 11:58:32;;;;;;;8.10;1.30;;;21.30;93.20;;;;;;4987445;28;20774;-87
2022/05/26 12:01:31;;;;;;;3.00;1.10;;;21.30;93.00;;;;;;4987375;28;20503;-88
2022/05/26 12:04:39;;;;;;;4.17;1.67;;;21.40;93.00;;;;;;4998017;28;20481;-88
2022/05/26 12:07:27;;;;;;;3.10;0.90;;;21.10;93.00;;;;;;4989528;28;20425;-87
2022/05/26 12:09:57;;;;;;;6.27;1.60;;;21.00;92.90;;;;;;5002529;23;20554;-89
2022/05/26 12:12:37;;;;;;;3.47;1.23;;;20.70;93.40;;;;;;4984039;28;20575;-89
2022/05/26 12:15:09;;;;;;;3.60;1.37;;;20.60;93.60;;;;;;4995872;28;20424;-88
2022/05/26 12:17:48;;;;;;;3.97;1.87;;;20.50;93.80;;;;;;4982242;28;20510;-89
2022/05/26 12:20:42;;;;;;;3.10;1.20;;;20.50;94.10;;;;;;4979575;28;20519;-89
2022/05/26 12:23:28;;;;;;;3.33;1.60;;;20.50;94.60;;;;;;4982073;28;20475;-87
2022/05/26 12:26:47;;;;;;;3.57;1.60;;;20.50;94.70;;;;;;4981013;28;20425;-88
2022/05/26 12:29:56;;;;;;;3.30;1.40;;;20.40;94.80;;;;;;4959175;28;20445;-89
2022/05/26 12:32:27;;;;;;;3.60;1.30;;;20.30;95.10;;;;;;4980224;28;20466;-88
2022/05/26 12:35:04;;;;;;;5.10;1.50;;;20.20;95.40;;;;;;4979284;28;20447;-88
2022/05/26 12:37:44;;;;;;;3.83;1.77;;;20.20;96.00;;;;;;4981695;28;20892;-88
2022/05/26 12:40:50;;;;;;;4.43;1.70;;;20.10;96.40;;;;;;4984345;28;20508;-88
2022/05/26 12:43:48;;;;;;;4.30;1.60;;;20.30;96.50;;;;;;4961758;28;20447;-88
2022/05/26 12:46:37;;;;;;;3.40;1.60;;;20.50;96.20;;;;;;4987647;28;20464;-87
2022/05/26 12:49:35;;;;;;;3.40;1.40;;;20.70;96.10;;;;;;4989729;28;20440;-87
2022/05/26 12:52:38;;;;;;;3.50;1.70;;;21.00;95.60;;;;;;4982589;28;20494;-88
2022/05/26 12:55:19;;;;;;;4.90;2.03;;;21.20;95.00;;;;;;4986519;28;20457;-87
2022/05/26 12:57:52;;;;;;;3.60;1.40;;;21.40;94.60;;;;;;4993623;28;20428;-88
2022/05/26 13:00:42;;;;;;;4.30;1.57;;;21.50;94.30;;;;;;4997559;28;20516;-87
2022/05/26 13:03:24;;;;;;;4.17;1.37;;;21.50;94.30;;;;;;4996288;28;20420;-89
2022/05/26 13:06:07;;;;;;;3.93;1.70;;;21.50;94.20;;;;;;4995553;28;20488;-88
2022/05/26 13:08:56;;;;;;;3.40;1.73;;;21.70;94.30;;;;;;4981298;28;20489;-88
2022/05/26 13:11:33;;;;;;;3.73;1.60;;;21.90;93.60;;;;;;4978838;28;20493;-87
2022/05/26 13:14:04;;;;;;;4.43;1.80;;;22.00;93.20;;;;;;4985798;28;20547;-88
2022/05/26 13:16:36;;;;;;;2.80;1.30;;;21.70;93.00;;;;;;4985296;28;20482;-88
2022/05/26 13:19:18;;;;;;;4.10;1.43;;;21.40;93.80;;;;;;4982635;28;20841;-87
2022/05/26 13:21:49;;;;;;;4.77;1.60;;;21.30;94.30;;;;;;4985460;28;20490;-87
2022/05/26 13:24:19;;;;;;;4.13;1.63;;;21.40;94.20;;;;;;4997148;28;20451;-89
2022/05/26 13:26:47;;;;;;;4.30;2.03;;;21.30;94.50;;;;;;4988761;28;20445;-88
2022/05/26 13:29:19;;;;;;;5.00;1.93;;;21.00;94.90;;;;;;4990170;28;20753;-88
2022/05/26 13:34:34;;;;;;;3.43;1.70;;;20.50;96.90;;;;;;4983755;28;20464;-87
2022/05/26 13:37:25;;;;;;;5.90;2.97;;;20.40;97.30;;;;;;4984252;28;20485;-88
2022/05/26 13:40:11;;;;;;;4.63;1.80;;;20.30;97.80;;;;;;4984144;28;20433;-90
2022/05/26 13:42:41;;;;;;;4.70;2.27;;;20.30;97.90;;;;;;4998740;28;20444;-90
2022/05/26 13:45:13;;;;;;;4.60;2.33;;;20.20;98.20;;;;;;5203136;23;20524;-90
2022/05/26 13:47:53;;;;;;;4.37;2.70;;;20.30;98.50;;;;;;5017613;28;20448;-88
2022/05/26 13:52:59;;;;;;;4.90;1.60;;;20.40;98.00;;;;;;5008771;28;20474;-87
2022/05/26 13:55:27;;;;;;;6.30;1.70;;;20.30;98.50;;;;;;5005448;28;20457;-88
2022/05/26 13:58:01;;;;;;;4.87;1.90;;;20.40;97.90;;;;;;5000155;28;20455;-88
2022/05/26 14:00:30;;;;;;;5.57;1.90;;;20.60;97.90;;;;;;4999287;28;20495;-87
2022/05/26 14:03:00;;;;;;;4.53;1.70;;;20.70;97.40;;;;;;4998439;28;20439;-88
2022/05/26 14:05:29;;;;;;;5.30;2.00;;;20.80;97.00;;;;;;4998628;28;20534;-88
2022/05/26 14:15:14;;;;;;;6.47;2.30;;;21.10;96.50;;;;;;4998807;28;20486;-89
2022/05/26 14:28:39;;;;;;;4.93;1.70;;;21.80;94.00;;;;;;4971889;28;20459;-89
2022/05/26 14:35:14;;;;;;;8.00;2.17;;;21.90;94.10;;;;;;5035320;28;20579;-90
2022/05/26 14:41:01;;;;;;;4.17;1.73;;;22.30;93.10;;;;;;5018180;28;20645;-88
2022/05/26 14:44:00;;;;;;;3.30;1.57;;;22.30;92.90;;;;;;5021253;28;20504;-89
2022/05/26 14:46:36;;;;;;;4.00;1.60;;;22.10;92.70;;;;;;5032336;28;20506;-88
2022/05/26 14:49:24;;;;;;;5.23;2.10;;;22.20;92.90;;;;;;5035094;28;20442;-89